Columbia Gorge Regional the Dalles Municipal Airport
KDLS : now visible

Airfield :











YOU CAN JOIN US ON...

 
LOGIN :

Register | Disclaimer

   EN    FR    IT 

 









Legend :    VFR   Marginal VFR   IFR   Intensive IFR   Very Intensive IFR
Visi :
Ceiling :
>= 8 km
>= 3000ft
5 to 8 km
1000 to 3000 ft
1500m to 5 km
500 to 1000 ft
800 to 1500m
200 to 500 ft
< 800m
< 200 ft
Symbols :   Thunderstorms  Fog  Heavy snow  Heavy precipitations  Wind > 20 kt







- Airport Elevation : 247 ft


KDLS - Columbia Gorge Regional the Dalles Municipal

CURRENT METAR :
  • 160653Z AUTO 00000KT 10SM OVC050 14/12 A2980 RMK AO2 SLP091 T01390117

EXPIRED METARs :
  • 160553Z AUTO 04004KT 10SM FEW043 SCT065 BKN100 13/12 A2979 RMK AO2 SLP087 60005 T01330117 10150 20133 50005
  • 160453Z AUTO 06003KT 10SM OVC090 14/12 A2979 RMK AO2 SLP088 P0001 T01390117
  • 160353Z AUTO 10004KT 10SM OVC085 14/12 A2978 RMK AO2 RAB37E51 SLP083 P0001 T01390122

TAF KDLS
Valid from the 16 at 06:00 until the 17 at 06:00 UTC


160520Z 1606/1706 31006KT P6SM -RA OVC045
FM161300 31010KT P6SM -SHRA BKN060
FM170300 30009KT P6SM BKN070
No reported NOTAMs for that airfield.



MET'MAP, your aeronautical weather chart ! - Copyright ORBIFLY December 2007 - Disclaimer

ORBIFLY MET'MAP TEAM :

Programming & Development : Alexandra Zaïnal
Concept & Development : Baudouin d'Aumeries
Co-Development & Prog : Marc-Olivier Méhu
Technical & hardware support : Manuel Goepfert

Contact : metmap@orbifly.com




SOURCES & CREDITS :

   NOAA       Earth
Advisory